KSYI/SYI METAR and TAF weather

Enter ICAO airport designator
Station Type Date Time Source
KSYI METAR 2021/03/05 12:15 UTC NOAA

KSYI 051215Z AUTO 36007KT 10SM CLR 02/M03 A3017 RMK A01


Station Type Date Time Source
KSYI Decoded METAR 2021/03/05 12:15 UTC NOAA

Station name not available
Mar 05, 2021 - 07:15 AM EST / 2021.03.05 1215 UTC
Wind: from the N (360 degrees) at 8 MPH (7 KT):0
Visibility: 10 mile(s):0
Sky conditions: clear
Temperature: 35 F (2 C)
Windchill: 28 F (-2 C):1
Dew Point: 26 F (-3 C)
Relative Humidity: 69%
Pressure (altimeter): 30.17 in. Hg (1021 hPa)
ob: KSYI 051215Z AUTO 36007KT 10SM CLR 02/M03 A3017 RMK A01
cycle: 12

Station Type Date Time Source
KSYI TAF UTC NOAA

Error!

Example: see airport list